Time;durP1;ratioP1;P1;durP2;ratioP2;P2;SDS_P1;SDS_P2;PMS_P1;PMS_P2;Temp;Humidity;BMP_temperature;BMP_pressure;BME280_temperature;BME280_humidity;BME280_pressure;Samples;Min_cycle;Max_cycle;Signal;HPM_P1;HPM_P2
2021/10/02 00:31:56;;;;;;;16.93;9.98;;;;;;;12.90;73.74;101870.44;1784885;80;20996;-69
2021/10/02 00:44:51;;;;;;;21.68;11.05;;;;;;;12.93;73.95;101860.16;1777797;79;20995;-65
2021/10/02 00:47:19;;;;;;;14.93;10.08;;;;;;;13.02;74.22;101868.34;1780926;79;20977;-66
2021/10/02 00:49:48;;;;;;;15.10;10.13;;;;;;;13.15;73.22;101870.03;1784316;80;20910;-77
2021/10/02 00:52:16;;;;;;;13.55;9.98;;;;;;;12.96;75.75;101867.20;1783683;80;21605;-64
2021/10/02 00:54:43;;;;;;;13.58;9.95;;;;;;;13.00;75.61;101867.20;1779585;80;20983;-66
2021/10/02 00:57:11;;;;;;;13.18;9.58;;;;;;;13.35;73.49;101865.34;1784888;80;21087;-65
2021/10/02 00:59:38;;;;;;;15.20;10.98;;;;;;;12.95;79.13;101871.27;1785329;80;21055;-75
2021/10/02 01:02:16;;;;;;;16.65;9.85;;;;;;;13.20;77.40;101870.85;1772845;80;21088;-66
2021/10/02 01:05:22;;;;;;;14.47;10.20;;;;;;;13.12;77.05;101867.73;1778645;79;20952;-68
2021/10/02 01:08:29;;;;;;;15.13;10.48;;;;;;;13.28;76.09;101864.34;1777902;80;20999;-65
2021/10/02 01:11:26;;;;;;;14.13;9.60;;;;;;;13.11;79.33;101859.55;1777974;80;21521;-70
2021/10/02 01:14:08;;;;;;;15.05;9.65;;;;;;;13.07;78.28;101859.05;1781878;80;20936;-67
2021/10/02 01:16:38;;;;;;;14.05;9.73;;;;;;;13.27;76.51;101860.91;1786022;80;21130;-66
2021/10/02 01:19:31;;;;;;;15.53;10.20;;;;;;;13.35;75.71;101856.99;1787694;80;21036;-66
2021/10/02 01:22:14;;;;;;;16.10;9.98;;;;;;;13.53;74.14;101857.34;1786413;79;21639;-67
2021/10/02 01:25:15;;;;;;;14.98;9.68;;;;;;;13.61;72.85;101856.85;1776259;80;20975;-66
2021/10/02 01:28:08;;;;;;;16.93;10.78;;;;;;;13.56;72.84;101859.62;1782023;80;22451;-67
2021/10/02 01:30:54;;;;;;;15.35;8.88;;;;;;;12.99;77.71;101863.42;1785401;80;21211;-66
2021/10/02 01:33:35;;;;;;;13.72;9.60;;;;;;;13.12;76.39;101858.56;1784782;79;21423;-66
2021/10/02 01:36:20;;;;;;;14.73;9.88;;;;;;;13.27;73.86;101855.67;1781649;80;20861;-66
2021/10/02 01:47:12;;;;;;;16.12;10.68;;;;;;;12.80;77.40;101866.63;1780063;80;21039;-65
2021/10/02 01:49:46;;;;;;;13.22;9.78;;;;;;;12.70;78.71;101869.06;1784907;79;21030;-68
2021/10/02 01:52:15;;;;;;;18.35;10.38;;;;;;;12.72;77.61;101867.91;1787304;79;21055;-66
2021/10/02 01:54:43;;;;;;;16.20;9.50;;;;;;;12.48;78.46;101868.63;1776921;80;20933;-66
2021/10/02 01:57:09;;;;;;;13.78;10.08;;;;;;;12.59;79.21;101866.23;1779962;80;22045;-66
2021/10/02 01:59:36;;;;;;;15.20;10.18;;;;;;;12.45;81.54;101870.73;1785370;79;21430;-77
2021/10/02 02:02:04;;;;;;;15.83;10.25;;;;;;;12.46;81.88;101861.91;1777059;80;21086;-65
2021/10/02 02:04:31;;;;;;;16.10;10.08;;;;;;;12.57;81.18;101862.94;1787673;79;20933;-65
2021/10/02 02:06:58;;;;;;;14.03;9.58;;;;;;;12.62;81.88;101861.52;1791503;79;21458;-67
2021/10/02 02:09:30;;;;;;;18.27;10.80;;;;;;;12.80;79.73;101864.02;1778280;79;21776;-77
2021/10/02 02:11:58;;;;;;;15.32;10.43;;;;;;;12.83;79.63;101863.70;1769817;79;21047;-66
2021/10/02 02:14:24;;;;;;;17.67;10.38;;;;;;;12.64;82.39;101860.84;1790488;79;20979;-66
2021/10/02 02:16:50;;;;;;;13.05;8.88;;;;;;;12.74;83.10;101865.97;1790922;79;21502;-66
2021/10/02 02:19:18;;;;;;;17.90;9.60;;;;;;;12.62;81.99;101865.92;1790505;79;21459;-72
2021/10/02 02:21:45;;;;;;;13.45;9.35;;;;;;;13.03;81.82;101859.05;1790525;79;21856;-67
2021/10/02 02:24:12;;;;;;;17.02;10.43;;;;;;;13.18;78.18;101863.14;1790194;79;22390;-66
2021/10/02 02:26:39;;;;;;;15.78;10.30;;;;;;;12.94;78.66;101868.33;1790639;79;20924;-66
2021/10/02 02:29:06;;;;;;;15.75;10.08;;;;;;;13.01;80.77;101860.17;1791246;79;21038;-67
2021/10/02 02:31:33;;;;;;;12.70;8.73;;;;;;;12.82;82.43;101859.95;1789886;79;20939;-78
2021/10/02 02:34:01;;;;;;;14.95;9.30;;;;;;;12.68;84.90;101858.73;1791200;79;21142;-66
2021/10/02 02:36:27;;;;;;;15.55;10.80;;;;;;;12.87;83.43;101857.66;1790275;79;20987;-66
2021/10/02 02:38:54;;;;;;;16.25;9.40;;;;;;;12.84;85.30;101854.05;1791971;79;21544;-65
2021/10/02 02:41:20;;;;;;;14.98;9.73;;;;;;;12.99;83.88;101848.53;1790659;79;21032;-66
2021/10/02 02:43:47;;;;;;;14.58;10.25;;;;;;;12.96;85.33;101850.19;1789619;79;20968;-76
2021/10/02 02:46:18;;;;;;;17.57;9.23;;;;;;;12.93;85.85;101856.23;1780148;79;22399;-67
2021/10/02 02:49:00;;;;;;;13.70;9.53;;;;;;;13.19;83.16;101850.89;1792240;79;20957;-66
2021/10/02 02:51:32;;;;;;;13.13;9.83;;;;;;;13.28;81.56;101850.76;1789773;79;21537;-76
2021/10/02 02:54:16;;;;;;;14.40;8.65;;;;;;;13.32;80.21;101849.95;1791704;79;21138;-66
2021/10/02 02:56:46;;;;;;;12.68;9.73;;;;;;;13.74;75.38;101854.22;1790103;79;21032;-70
2021/10/02 02:59:25;;;;;;;13.58;9.98;;;;;;;13.69;73.17;101852.10;1789904;79;21124;-79
2021/10/02 03:01:54;;;;;;;13.30;9.58;;;;;;;13.78;70.95;101851.59;1684897;78;25133;-66
2021/10/02 03:04:20;;;;;;;16.62;10.13;;;;;;;13.55;69.57;101850.94;1656509;86;21008;-68
2021/10/02 03:06:50;;;;;;;19.42;11.80;;;;;;;13.32;68.91;101856.00;1656095;86;21001;-68
2021/10/02 03:09:16;;;;;;;20.85;12.47;;;;;;;13.51;66.99;101856.18;1656343;85;21144;-71
2021/10/02 03:11:45;;;;;;;17.55;11.75;;;;;;;13.40;66.80;101857.81;1629988;86;22261;-69
2021/10/02 03:14:14;;;;;;;17.25;11.45;;;;;;;13.43;64.53;101856.67;1656190;86;21072;-68
2021/10/02 03:16:43;;;;;;;17.40;10.98;;;;;;;13.39;64.45;101860.11;1640876;86;21077;-72
2021/10/02 03:19:12;;;;;;;19.35;12.30;;;;;;;13.42;63.26;101858.48;1604948;86;20972;-77
2021/10/02 03:21:41;;;;;;;16.85;10.38;;;;;;;12.62;66.58;101864.13;1653354;86;21020;-69
2021/10/02 03:24:08;;;;;;;16.45;11.78;;;;;;;12.25;71.47;101858.38;1659729;84;21235;-69
2021/10/02 03:26:37;;;;;;;18.98;12.50;;;;;;;12.35;70.12;101861.22;1654467;86;20941;-69
2021/10/02 03:29:05;;;;;;;20.65;12.37;;;;;;;12.00;74.12;101856.08;1627580;86;20965;-69
2021/10/02 03:31:32;;;;;;;20.20;11.53;;;;;;;12.24;74.14;101861.48;1648645;86;20975;-70
2021/10/02 03:34:02;;;;;;;23.38;11.33;;;;;;;12.24;75.11;101860.66;1656085;85;21099;-75
2021/10/02 03:36:29;;;;;;;17.65;12.05;;;;;;;12.34;75.95;101856.94;1659927;86;21184;-76
2021/10/02 03:38:55;;;;;;;17.07;11.93;;;;;;;12.27;80.57;101863.77;1656234;86;20914;-71
2021/10/02 03:41:22;;;;;;;15.80;10.53;;;;;;;12.13;84.05;101869.58;1659937;86;21214;-68
2021/10/02 03:43:50;;;;;;;17.57;10.50;;;;;;;12.38;85.99;101864.80;1656922;86;21488;-67
2021/10/02 03:46:17;;;;;;;15.15;10.63;;;;;;;12.90;84.68;101858.66;1651371;85;21514;-69
2021/10/02 03:48:43;;;;;;;17.48;9.88;;;;;;;13.57;79.76;101857.34;1654706;86;21165;-69
2021/10/02 03:51:10;;;;;;;15.38;10.10;;;;;;;13.93;77.76;101847.81;1654789;86;21048;-69
2021/10/02 03:53:36;;;;;;;24.18;11.73;;;;;;;14.27;75.72;101848.39;1658482;86;20996;-73
2021/10/02 03:56:05;;;;;;;21.45;10.65;;;;;;;14.95;72.84;101849.63;1656929;85;21012;-66
2021/10/02 03:58:31;;;;;;;18.77;12.43;;;;;;;15.30;68.59;101843.49;1654658;85;21588;-66
2021/10/02 04:00:58;;;;;;;17.67;12.28;;;;;;;16.25;62.67;101838.58;1660815;84;21132;-66
2021/10/02 04:03:24;;;;;;;15.08;10.38;;;;;;;16.90;57.94;101838.79;1658545;85;21548;-67
2021/10/02 04:05:51;;;;;;;15.40;10.55;;;;;;;16.86;57.34;101838.34;1663488;85;21040;-67
2021/10/02 04:08:18;;;;;;;13.48;9.60;;;;;;;17.10;56.03;101849.53;1666661;85;21067;-67
2021/10/02 04:10:46;;;;;;;15.70;9.03;;;;;;;17.75;53.80;101850.64;1661951;85;20941;-72
2021/10/02 04:13:13;;;;;;;13.37;10.10;;;;;;;18.24;51.27;101839.20;1655998;85;21174;-67
2021/10/02 04:15:39;;;;;;;19.00;11.77;;;;;;;18.93;49.02;101852.00;1660866;85;21259;-67
2021/10/02 04:18:07;;;;;;;18.20;13.13;;;;;;;19.27;46.89;101851.56;1664227;85;21606;-67
2021/10/02 04:20:34;;;;;;;17.93;13.13;;;;;;;18.61;46.81;101858.27;1659236;85;21556;-65
2021/10/02 04:23:02;;;;;;;17.43;13.20;;;;;;;18.71;46.28;101859.23;1665325;85;21552;-66
2021/10/02 04:25:28;;;;;;;16.17;11.40;;;;;;;18.67;45.85;101855.33;1662056;85;21250;-66
2021/10/02 04:27:55;;;;;;;17.00;12.73;;;;;;;19.02;44.64;101858.75;1658305;85;21130;-66
2021/10/02 04:30:23;;;;;;;16.53;11.17;;;;;;;19.24;43.81;101854.59;1662146;85;21405;-65
2021/10/02 04:32:49;;;;;;;13.03;10.03;;;;;;;19.68;42.92;101855.38;1660244;85;21321;-68
2021/10/02 04:35:16;;;;;;;13.27;9.77;;;;;;;19.90;42.34;101858.62;1664556;85;21524;-66
2021/10/02 04:37:42;;;;;;;13.60;9.07;;;;;;;19.85;41.94;101865.02;1641559;85;21680;-69
2021/10/02 04:40:11;;;;;;;15.40;11.20;;;;;;;19.85;41.94;101865.02;1665074;85;21865;-65
2021/10/02 04:42:38;;;;;;;14.63;10.70;;;;;;;20.07;41.28;101862.44;1661659;85;22009;-64
2021/10/02 04:45:06;;;;;;;13.83;9.90;;;;;;;19.75;40.94;101860.67;1657821;85;21834;-68
2021/10/02 04:47:32;;;;;;;14.20;10.63;;;;;;;18.89;42.62;101862.66;1663281;85;22173;-66
2021/10/02 04:49:59;;;;;;;13.47;9.70;;;;;;;18.52;42.93;101860.75;1649909;85;21375;-68
2021/10/02 04:52:26;;;;;;;15.63;10.70;;;;;;;18.52;42.93;101860.75;1633204;85;22190;-69
2021/10/02 04:54:53;;;;;;;13.83;9.43;;;;;;;18.04;43.82;101862.53;1642791;85;21501;-68
2021/10/02 04:57:20;;;;;;;12.70;9.53;;;;;;;18.04;43.82;101862.53;1658286;85;21455;-65
2021/10/02 04:59:47;;;;;;;15.33;10.07;;;;;;;17.38;45.90;101869.36;1655447;85;21206;-65
2021/10/02 05:02:13;;;;;;;17.47;9.40;;;;;;;17.54;46.06;101866.48;1601796;87;21453;-65
2021/10/02 05:04:41;;;;;;;13.67;9.90;;;;;;;17.44;46.76;101873.89;1626681;86;21243;-70
2021/10/02 05:07:09;;;;;;;13.33;10.10;;;;;;;17.70;46.87;101871.48;1626431;87;21294;-66
2021/10/02 05:09:40;;;;;;;19.07;10.60;;;;;;;16.78;47.74;101877.45;1613256;86;21199;-64
2021/10/02 05:12:09;;;;;;;19.13;11.20;;;;;;;16.13;50.56;101876.83;1592889;86;21336;-66
2021/10/02 05:14:38;;;;;;;13.90;9.50;;;;;;;16.96;49.42;101877.03;1580289;86;21309;-69
2021/10/02 05:17:10;;;;;;;14.87;10.27;;;;;;;16.74;49.88;101877.52;1559341;88;21166;-65
2021/10/02 05:19:35;;;;;;;17.00;10.97;;;;;;;16.78;50.12;101874.83;1586375;87;21273;-65
2021/10/02 05:22:03;;;;;;;15.50;10.00;;;;;;;16.70;50.86;101869.60;1597848;88;21270;-70
2021/10/02 05:24:30;;;;;;;14.47;9.90;;;;;;;16.39;51.45;101876.89;1617654;86;21387;-74
2021/10/02 05:26:57;;;;;;;16.83;10.63;;;;;;;16.21;52.61;101869.35;1622975;87;21433;-66
2021/10/02 05:29:24;;;;;;;13.10;9.60;;;;;;;16.19;54.42;101873.99;1623196;87;21846;-65
2021/10/02 05:31:50;;;;;;;12.47;9.13;;;;;;;16.81;53.59;101876.75;1619851;87;21162;-68
2021/10/02 05:34:17;;;;;;;13.53;9.17;;;;;;;16.97;52.52;101876.53;1623170;87;21926;-68
2021/10/02 05:36:43;;;;;;;18.57;10.57;;;;;;;17.14;51.62;101874.00;1621642;86;21228;-66
2021/10/02 05:39:10;;;;;;;15.73;10.77;;;;;;;16.99;51.84;101870.08;1626114;86;22648;-67
2021/10/02 05:41:37;;;;;;;14.20;10.53;;;;;;;17.01;52.02;101876.50;1592152;87;21342;-66
2021/10/02 05:44:04;;;;;;;17.27;10.00;;;;;;;17.51;50.51;101878.22;1575122;87;21295;-66
2021/10/02 05:46:32;;;;;;;16.73;10.50;;;;;;;17.51;50.39;101876.09;1640012;86;21792;-67
2021/10/02 05:48:59;;;;;;;13.97;10.13;;;;;;;17.28;50.38;101880.73;1638302;86;21292;-68
2021/10/02 05:51:25;;;;;;;14.97;9.17;;;;;;;18.09;49.23;101875.95;1634456;86;21263;-65
2021/10/02 05:53:52;;;;;;;17.13;9.80;;;;;;;18.58;47.94;101873.69;1623718;86;21131;-64
2021/10/02 05:56:18;;;;;;;15.73;8.60;;;;;;;19.09;46.01;101883.84;1614203;86;21488;-67
2021/10/02 05:58:45;;;;;;;13.27;8.73;;;;;;;19.09;46.01;101883.84;1618496;86;21904;-67
2021/10/02 06:01:11;;;;;;;18.07;8.33;;;;;;;19.77;42.89;101880.59;1609582;86;22322;-66
2021/10/02 06:03:37;;;;;;;14.00;8.27;;;;;;;19.77;42.89;101880.59;1648767;86;21756;-66
2021/10/02 06:06:05;;;;;;;11.97;8.23;;;;;;;20.13;42.01;101885.97;1680936;84;21616;-68
2021/10/02 06:08:32;;;;;;;14.63;8.03;;;;;;;20.62;40.88;101880.16;1676053;84;21550;-66
2021/10/02 06:10:58;;;;;;;13.17;8.37;;;;;;;21.43;39.54;101866.76;1681390;84;21583;-69
2021/10/02 06:13:25;;;;;;;21.03;8.00;;;;;;;22.08;37.90;101871.17;1687900;84;21619;-67
2021/10/02 06:15:54;;;;;;;13.53;8.43;;;;;;;22.19;37.32;101868.86;1681706;84;21067;-68
2021/10/02 06:18:21;;;;;;;16.00;9.53;;;;;;;22.93;36.29;101873.63;1687102;84;20983;-69
2021/10/02 06:20:50;;;;;;;15.33;8.67;;;;;;;23.07;34.74;101865.75;1649632;86;21083;-68
2021/10/02 06:23:16;;;;;;;10.60;8.07;;;;;;;23.04;34.46;101860.36;1605746;87;21094;-67
2021/10/02 06:25:43;;;;;;;8.43;6.87;;;;;;;23.60;33.58;101866.25;1673731;84;21035;-67
2021/10/02 06:28:10;;;;;;;10.77;6.93;;;;;;;23.58;33.45;101863.52;1646854;86;21148;-67
2021/10/02 06:30:36;;;;;;;11.13;7.07;;;;;;;24.41;32.43;101863.27;1685694;84;21002;-69
2021/10/02 06:33:03;;;;;;;12.53;6.53;;;;;;;24.68;31.12;101857.37;1685087;84;21046;-66
2021/10/02 06:35:30;;;;;;;12.80;6.83;;;;;;;24.75;30.83;101859.38;1686276;84;21150;-65
2021/10/02 06:37:58;;;;;;;11.60;7.37;;;;;;;24.87;30.28;101858.80;1686136;84;20927;-67
2021/10/02 06:40:25;;;;;;;14.47;7.03;;;;;;;24.74;29.90;101857.77;1653859;86;21156;-66
2021/10/02 06:42:52;;;;;;;12.47;6.63;;;;;;;24.86;30.14;101855.86;1688314;84;20955;-70
2021/10/02 06:45:19;;;;;;;15.43;6.43;;;;;;;24.86;29.67;101855.86;1679159;84;21583;-66
2021/10/02 06:47:47;;;;;;;10.83;6.37;;;;;;;24.79;29.30;101853.05;1686283;84;21000;-66
2021/10/02 06:50:14;;;;;;;10.77;6.80;;;;;;;24.91;29.13;101859.94;1654497;86;21506;-66
2021/10/02 06:52:42;;;;;;;8.57;5.63;;;;;;;25.18;28.67;101852.69;1669806;84;21004;-67
2021/10/02 06:55:09;;;;;;;11.20;6.50;;;;;;;25.24;28.42;101849.06;1679765;84;21015;-68
2021/10/02 06:57:36;;;;;;;9.10;5.73;;;;;;;25.45;27.93;101846.98;1670314;84;21495;-68
2021/10/02 07:00:04;;;;;;;8.87;6.00;;;;;;;25.40;27.26;101844.77;1654271;84;21520;-68
2021/10/02 07:02:32;;;;;;;9.90;6.10;;;;;;;25.31;27.34;101843.57;1683299;84;21536;-68
2021/10/02 07:04:59;;;;;;;10.87;6.23;;;;;;;25.41;27.05;101844.52;1680610;84;21157;-69
2021/10/02 07:07:26;;;;;;;8.37;5.37;;;;;;;25.43;26.99;101838.42;1684024;84;21053;-67
2021/10/02 07:09:52;;;;;;;9.97;5.47;;;;;;;25.32;26.81;101835.84;1649228;86;21039;-67
2021/10/02 07:12:19;;;;;;;9.20;5.23;;;;;;;25.42;26.33;101837.31;1685937;84;21003;-69
2021/10/02 07:14:45;;;;;;;10.10;5.33;;;;;;;25.76;26.23;101841.28;1682983;84;20969;-68
2021/10/02 07:17:13;;;;;;;9.40;5.23;;;;;;;26.03;25.47;101820.85;1654495;84;20963;-66
2021/10/02 07:19:40;;;;;;;8.90;5.30;;;;;;;26.22;25.56;101835.25;1644451;86;21008;-65
2021/10/02 07:22:09;;;;;;;6.90;5.20;;;;;;;26.12;25.49;101829.23;1694307;84;20983;-63
2021/10/02 07:24:36;;;;;;;8.20;5.40;;;;;;;26.58;24.75;101819.89;1694956;84;20971;-64
2021/10/02 07:27:03;;;;;;;7.97;5.00;;;;;;;26.64;24.41;101817.55;1692968;84;21074;-65
2021/10/02 07:29:31;;;;;;;7.77;4.63;;;;;;;26.60;24.28;101816.44;1693431;84;21788;-66
2021/10/02 07:31:57;;;;;;;7.40;4.37;;;;;;;25.98;24.81;101814.62;1693409;84;21007;-65
2021/10/02 07:34:24;;;;;;;8.20;4.20;;;;;;;26.89;23.71;101811.61;1693652;84;20967;-66
2021/10/02 07:36:52;;;;;;;6.77;4.07;;;;;;;27.11;23.35;101814.23;1697632;84;21576;-67
2021/10/02 07:39:19;;;;;;;5.73;4.07;;;;;;;27.13;22.78;101809.45;1686484;84;21587;-71
2021/10/02 07:41:47;;;;;;;6.73;3.67;;;;;;;27.00;22.54;101805.02;1675755;84;21123;-68
2021/10/02 07:44:14;;;;;;;8.40;5.73;;;;;;;26.59;22.57;101811.33;1660531;84;21064;-66
2021/10/02 07:46:50;;;;;;;6.83;5.00;;;;;;;26.42;22.77;101808.73;1655112;85;21035;-70
2021/10/02 07:49:18;;;;;;;7.63;4.27;;;;;;;26.83;22.65;101805.95;1677274;85;21099;-69
2021/10/02 07:51:45;;;;;;;7.43;4.43;;;;;;;26.79;22.68;101802.18;1666220;85;21012;-65
2021/10/02 07:54:14;;;;;;;6.83;4.87;;;;;;;26.34;22.68;101804.64;1674346;85;21007;-70
2021/10/02 07:56:42;;;;;;;7.97;3.70;;;;;;;26.39;22.84;101802.02;1684778;84;21070;-66
2021/10/02 07:59:10;;;;;;;7.73;4.23;;;;;;;26.19;23.11;101788.44;1683045;84;20994;-70
2021/10/02 08:01:37;;;;;;;6.07;4.00;;;;;;;26.42;22.86;101796.70;1679298;84;21138;-67
2021/10/02 08:04:05;;;;;;;6.93;4.23;;;;;;;25.62;23.63;101805.59;1679864;84;21108;-67
2021/10/02 08:06:32;;;;;;;6.37;4.27;;;;;;;26.41;23.11;101789.21;1680784;84;21082;-74
2021/10/02 08:09:01;;;;;;;10.70;4.70;;;;;;;26.76;22.54;101798.67;1678424;84;21026;-68
2021/10/02 08:11:29;;;;;;;6.10;3.57;;;;;;;26.54;23.04;101796.05;1624689;86;21033;-71
2021/10/02 08:13:57;;;;;;;6.10;3.67;;;;;;;26.56;22.85;101793.94;1637230;86;22144;-67
2021/10/02 08:16:29;;;;;;;5.67;3.70;;;;;;;26.36;22.77;101783.80;1624897;86;21018;-70
2021/10/02 08:18:58;;;;;;;5.58;3.77;;;;;;;25.99;23.07;101794.86;1642098;86;27134;-67
2021/10/02 08:21:27;;;;;;;6.58;3.80;;;;;;;25.84;23.42;101790.96;1679435;84;21482;-68
2021/10/02 08:23:54;;;;;;;5.93;3.03;;;;;;;26.25;23.17;101794.09;1682133;84;21073;-67
2021/10/02 08:26:21;;;;;;;7.83;3.27;;;;;;;26.32;22.83;101777.33;1678539;85;21062;-73
2021/10/02 08:28:51;;;;;;;6.87;3.63;;;;;;;26.14;23.02;101779.03;1671055;84;21064;-68
2021/10/02 08:31:22;;;;;;;6.53;2.50;;;;;;;26.05;23.08;101773.83;1679683;84;21154;-69
2021/10/02 08:33:52;;;;;;;5.73;2.67;;;;;;;25.94;22.87;101781.72;1678093;84;21067;-70
2021/10/02 08:36:18;;;;;;;5.13;2.20;;;;;;;25.92;22.27;101767.81;1679514;85;20972;-69
2021/10/02 08:38:47;;;;;;;4.80;1.80;;;;;;;25.49;22.77;101765.87;1680882;84;21487;-68
2021/10/02 08:41:17;;;;;;;8.00;2.20;;;;;;;25.90;22.17;101751.20;1678837;84;21103;-71
2021/10/02 08:43:46;;;;;;;4.73;2.00;;;;;;;26.23;21.83;101761.48;1667340;85;21155;-69
2021/10/02 08:46:13;;;;;;;5.07;1.93;;;;;;;26.22;21.46;101755.06;1667622;85;20956;-69
2021/10/02 08:48:39;;;;;;;4.27;1.83;;;;;;;25.99;21.57;101758.78;1674645;85;21021;-70
2021/10/02 08:51:06;;;;;;;4.77;1.80;;;;;;;25.90;21.72;101755.75;1637335;85;21072;-70
2021/10/02 08:53:34;;;;;;;6.77;1.70;;;;;;;25.92;21.34;101758.46;1637884;86;20968;-71
2021/10/02 08:56:01;;;;;;;5.27;1.70;;;;;;;25.87;21.63;101751.70;1639311;86;21666;-67
2021/10/02 08:58:29;;;;;;;3.70;1.73;;;;;;;25.47;21.96;101750.64;1637176;86;21164;-68
2021/10/02 09:01:00;;;;;;;2.77;1.43;;;;;;;25.54;21.82;101755.28;1639546;86;21561;-67
2021/10/02 09:03:27;;;;;;;4.17;1.60;;;;;;;25.10;22.19;101742.35;1633361;86;21096;-69
2021/10/02 09:05:54;;;;;;;8.63;1.40;;;;;;;25.24;22.13;101767.66;1681386;84;20912;-69
2021/10/02 09:08:21;;;;;;;5.20;1.60;;;;;;;25.34;22.40;101754.44;1687000;84;22585;-72
2021/10/02 09:10:49;;;;;;;3.83;1.67;;;;;;;25.52;22.43;101746.69;1681329;84;21110;-69
2021/10/02 09:13:15;;;;;;;3.80;1.67;;;;;;;25.43;22.32;101732.97;1643330;85;21054;-69
2021/10/02 09:15:42;;;;;;;3.60;1.90;;;;;;;25.66;21.95;101755.16;1670191;84;20975;-68
2021/10/02 09:18:11;;;;;;;3.33;1.50;;;;;;;25.64;21.91;101727.88;1672067;84;20936;-73
2021/10/02 09:20:39;;;;;;;4.80;2.27;;;;;;;25.70;22.34;101737.58;1681000;84;21046;-70
2021/10/02 09:23:09;;;;;;;4.37;1.77;;;;;;;25.91;21.87;101727.97;1681244;84;20925;-69
2021/10/02 09:25:38;;;;;;;3.47;1.87;;;;;;;25.89;21.89;101737.58;1679429;84;21043;-70
2021/10/02 09:28:14;;;;;;;3.23;1.73;;;;;;;25.95;21.89;101728.58;1630006;86;21028;-75
2021/10/02 09:30:44;;;;;;;3.67;1.83;;;;;;;25.93;21.91;101722.66;1681539;84;21372;-68
2021/10/02 09:33:20;;;;;;;3.50;1.70;;;;;;;26.23;21.74;101720.58;1681749;85;21148;-68
2021/10/02 09:35:48;;;;;;;4.57;1.60;;;;;;;26.38;21.85;101708.70;1666091;85;21514;-72
2021/10/02 09:38:17;;;;;;;5.53;1.87;;;;;;;26.38;22.05;101716.19;1670365;85;21116;-68
2021/10/02 09:40:54;;;;;;;5.03;1.60;;;;;;;26.71;21.30;101715.70;1670850;84;21537;-68
2021/10/02 09:43:21;;;;;;;3.90;1.43;;;;;;;26.67;21.31;101716.74;1680627;83;21055;-68
2021/10/02 09:45:49;;;;;;;4.73;1.93;;;;;;;26.08;21.55;101711.87;1670663;84;21435;-72
2021/10/02 09:48:25;;;;;;;3.33;1.40;;;;;;;25.73;22.09;101721.07;1681337;84;21524;-71
2021/10/02 09:50:52;;;;;;;5.27;1.93;;;;;;;25.79;22.18;101720.62;1673624;84;21419;-70
2021/10/02 09:53:20;;;;;;;6.83;1.93;;;;;;;25.52;22.52;101701.30;1681382;84;20976;-70
2021/10/02 09:55:50;;;;;;;5.30;2.10;;;;;;;25.59;22.52;101701.93;1647674;84;21022;-74
2021/10/02 09:58:32;;;;;;;4.17;1.87;;;;;;;25.89;22.28;101691.36;1650780;86;21124;-70
2021/10/02 10:01:01;;;;;;;4.97;2.02;;;;;;;26.05;22.17;101695.80;1681511;84;21143;-68
2021/10/02 10:03:45;;;;;;;4.73;2.03;;;;;;;26.26;21.89;101695.48;1674611;84;21079;-70
2021/10/02 10:06:20;;;;;;;4.70;2.10;;;;;;;26.27;21.74;101685.06;1680491;84;21090;-68
2021/10/02 10:09:11;;;;;;;5.03;1.90;;;;;;;26.19;21.97;101670.83;1652808;85;21023;-69
2021/10/02 10:11:54;;;;;;;3.77;1.60;;;;;;;26.38;21.85;101684.63;1662507;85;22758;-68
2021/10/02 10:14:23;;;;;;;7.05;2.05;;;;;;;26.39;21.52;101679.02;1625859;87;21581;-71
2021/10/02 10:16:53;;;;;;;3.65;1.72;;;;;;;26.05;21.81;101679.77;1609659;87;21052;-70
2021/10/02 10:19:24;;;;;;;5.20;1.97;;;;;;;26.02;21.93;101674.12;1622634;87;21590;-66
2021/10/02 10:22:21;;;;;;;6.03;2.00;;;;;;;26.07;21.92;101678.20;1611724;87;20948;-67
2021/10/02 10:24:55;;;;;;;3.33;1.80;;;;;;;25.23;22.53;101681.98;1594215;87;21155;-66
2021/10/02 10:27:41;;;;;;;3.70;1.87;;;;;;;24.96;22.94;101679.98;1641451;85;21534;-65
2021/10/02 10:30:14;;;;;;;5.53;2.03;;;;;;;25.41;22.47;101672.33;1605102;87;21602;-66
2021/10/02 10:33:06;;;;;;;3.27;1.70;;;;;;;24.77;22.75;101671.92;1611343;86;21035;-67
2021/10/02 10:35:38;;;;;;;6.63;1.97;;;;;;;25.26;22.57;101660.12;1609378;86;21039;-67
2021/10/02 10:38:07;;;;;;;3.37;1.60;;;;;;;26.07;21.98;101655.48;1607287;86;21160;-66
2021/10/02 10:40:34;;;;;;;3.97;1.80;;;;;;;25.41;22.50;101654.97;1621335;86;21018;-66
2021/10/02 10:43:01;;;;;;;4.60;1.60;;;;;;;25.46;22.53;101662.27;1661970;85;20968;-72
2021/10/02 10:45:28;;;;;;;5.00;1.53;;;;;;;25.61;22.03;101656.27;1664942;85;21149;-70
2021/10/02 10:47:57;;;;;;;5.37;2.03;;;;;;;25.71;22.44;101654.53;1618155;87;21097;-69
2021/10/02 10:50:25;;;;;;;5.65;1.77;;;;;;;25.94;22.04;101637.97;1622676;87;27097;-70
2021/10/02 10:52:52;;;;;;;4.53;1.50;;;;;;;26.04;21.85;101642.63;1619751;87;21078;-69
2021/10/02 10:55:22;;;;;;;7.60;2.03;;;;;;;25.84;21.78;101645.91;1614467;87;21040;-67
2021/10/02 10:57:52;;;;;;;3.17;1.50;;;;;;;26.15;21.30;101656.36;1626081;87;21026;-70
2021/10/02 11:00:32;;;;;;;4.43;1.53;;;;;;;25.96;21.22;101651.36;1626585;88;21677;-69
2021/10/02 11:03:04;;;;;;;3.33;1.47;;;;;;;25.71;21.20;101649.19;1616629;87;21161;-69
2021/10/02 11:05:40;;;;;;;4.80;1.60;;;;;;;25.67;20.79;101657.95;1625115;87;21530;-69
2021/10/02 11:08:12;;;;;;;3.40;1.43;;;;;;;25.31;21.26;101650.86;1617277;87;20959;-68
2021/10/02 11:10:53;;;;;;;5.97;1.90;;;;;;;25.42;21.68;101639.26;1622068;88;21009;-71
2021/10/02 11:13:36;;;;;;;4.65;1.50;;;;;;;25.70;21.46;101637.44;1623972;87;21478;-69
2021/10/02 11:16:31;;;;;;;4.07;1.60;;;;;;;25.60;21.31;101637.31;1626252;87;21024;-69
2021/10/02 11:18:57;;;;;;;3.47;1.60;;;;;;;25.50;21.18;101643.36;1626659;87;21040;-69
2021/10/02 11:21:30;;;;;;;4.77;1.97;;;;;;;25.38;21.36;101632.80;1625149;87;21044;-70
2021/10/02 11:24:14;;;;;;;3.53;1.70;;;;;;;25.92;21.46;101637.44;1626193;88;21013;-69
2021/10/02 11:26:46;;;;;;;2.97;1.60;;;;;;;26.18;21.48;101634.48;1611890;87;21067;-69
2021/10/02 11:29:23;;;;;;;4.20;1.50;;;;;;;26.14;21.49;101630.70;1604573;87;21151;-68
2021/10/02 11:32:11;;;;;;;4.70;2.13;;;;;;;26.19;21.11;101632.88;1600266;86;21063;-69
2021/10/02 11:35:01;;;;;;;5.77;1.93;;;;;;;26.12;21.25;101632.27;1613599;85;21028;-70
2021/10/02 11:37:39;;;;;;;4.50;1.80;;;;;;;26.11;21.05;101641.89;1605949;85;21123;-73
2021/10/02 11:40:38;;;;;;;8.43;2.27;;;;;;;25.95;21.14;101623.05;1605298;86;21102;-68
2021/10/02 11:43:18;;;;;;;4.13;1.97;;;;;;;26.01;21.44;101619.87;1630705;87;21140;-70
2021/10/02 11:45:50;;;;;;;3.83;1.60;;;;;;;26.05;20.84;101622.85;1662958;85;21017;-67
2021/10/02 11:48:40;;;;;;;6.03;1.67;;;;;;;26.08;20.88;101617.80;1662540;84;21027;-68
2021/10/02 11:51:28;;;;;;;3.30;1.53;;;;;;;26.10;20.82;101626.39;1670890;85;21228;-68
2021/10/02 11:54:09;;;;;;;6.20;1.77;;;;;;;25.93;20.93;101619.80;1662111;85;20960;-68
2021/10/02 11:56:36;;;;;;;7.03;1.70;;;;;;;25.50;20.90;101633.20;1651065;85;22381;-68
2021/10/02 11:59:04;;;;;;;4.00;1.53;;;;;;;25.44;20.42;101618.45;1672028;85;21241;-69
2021/10/02 12:01:41;;;;;;;3.53;1.67;;;;;;;25.40;20.04;101620.00;1666636;84;21046;-70
2021/10/02 12:04:13;;;;;;;5.07;1.40;;;;;;;25.54;20.10;101623.11;1652706;84;21560;-74
2021/10/02 12:06:43;;;;;;;2.67;1.20;;;;;;;25.82;19.66;101614.08;1676151;84;21097;-68
2021/10/02 12:09:12;;;;;;;3.10;1.60;;;;;;;25.77;19.00;101612.67;1640179;86;21621;-67
2021/10/02 12:11:43;;;;;;;;;;;;;;;25.70;18.75;101609.39;1658551;86;20998;-68
2021/10/02 12:14:14;;;;;;;4.87;1.63;;;;;;;25.61;18.92;101607.70;1679561;84;20150;-69
2021/10/02 12:16:42;;;;;;;6.77;1.73;;;;;;;25.67;19.23;101609.88;1660251;84;20904;-68
2021/10/02 12:19:11;;;;;;;3.40;1.90;;;;;;;25.75;19.89;101606.77;1683274;84;21014;-73
2021/10/02 12:21:50;;;;;;;5.17;1.70;;;;;;;25.84;20.05;101601.30;1679907;84;20951;-73
2021/10/02 12:24:34;;;;;;;7.20;2.07;;;;;;;25.96;19.88;101597.92;1649230;86;21043;-69